Time;durP1;ratioP1;P1;durP2;ratioP2;P2;SDS_P1;SDS_P2;PMS_P1;PMS_P2;Temp;Humidity;BMP_temperature;BMP_pressure;BME280_temperature;BME280_humidity;BME280_pressure;Samples;Min_cycle;Max_cycle;Signal;HPM_P1;HPM_P2
2023/12/08 00:02:09;;;;;;;76.30;35.40;;;;;;;-2.20;80.84;99549.30;105991;1251;109536;-68
2023/12/08 00:04:37;;;;;;;67.50;33.90;;;;;;;-2.19;80.73;99543.04;105587;1254;96983;-68
2023/12/08 00:07:04;;;;;;;65.80;31.40;;;;;;;-2.19;80.78;99540.06;105474;1257;107631;-69
2023/12/08 00:09:32;;;;;;;67.10;33.30;;;;;;;-2.21;80.95;99539.23;105600;1265;97792;-68
2023/12/08 00:12:01;;;;;;;69.60;33.20;;;;;;;-2.24;80.68;99543.61;105654;1255;97821;-66
2023/12/08 00:14:29;;;;;;;66.30;32.50;;;;;;;-2.25;80.81;99541.04;105456;1253;108459;-66
2023/12/08 00:16:57;;;;;;;66.50;34.30;;;;;;;-2.27;80.81;99534.11;105092;1251;97044;-67
2023/12/08 00:19:25;;;;;;;74.80;35.30;;;;;;;-2.27;80.74;99530.98;105035;1267;108186;-66
2023/12/08 00:21:53;;;;;;;71.50;34.40;;;;;;;-2.29;80.77;99534.30;105101;1257;96686;-68
2023/12/08 00:24:21;;;;;;;68.40;33.00;;;;;;;-2.28;80.82;99536.55;105425;1265;96655;-67
2023/12/08 00:26:48;;;;;;;69.20;33.20;;;;;;;-2.26;80.98;99540.53;105423;1251;109486;-68
2023/12/08 00:29:20;;;;;;;74.90;35.00;;;;;;;-2.25;80.87;99547.61;105846;1263;96599;-68
2023/12/08 00:31:48;;;;;;;65.80;34.90;;;;;;;-2.24;80.94;99550.74;105755;1254;107082;-68
2023/12/08 00:34:16;;;;;;;76.70;34.50;;;;;;;-2.22;80.88;99551.05;105829;1251;97824;-68
2023/12/08 00:36:44;;;;;;;68.90;32.10;;;;;;;-2.19;80.96;99552.25;105864;1253;96683;-68
2023/12/08 00:39:12;;;;;;;70.20;35.30;;;;;;;-2.18;80.92;99549.45;105653;1251;109360;-68
2023/12/08 00:41:40;;;;;;;70.50;36.60;;;;;;;-2.17;80.93;99544.21;105570;1264;97572;-68
2023/12/08 00:44:08;;;;;;;69.10;34.30;;;;;;;-2.15;80.96;99545.24;105922;1251;107615;-67
2023/12/08 00:46:36;;;;;;;71.90;36.50;;;;;;;-2.16;80.83;99546.11;105855;1254;96676;-68
2023/12/08 00:49:04;;;;;;;71.50;34.50;;;;;;;-2.14;80.78;99550.80;105680;1255;96635;-69
2023/12/08 00:51:32;;;;;;;70.40;34.00;;;;;;;-2.12;80.99;99549.90;105873;1262;109947;-68
2023/12/08 00:54:00;;;;;;;67.50;32.50;;;;;;;-2.12;80.88;99550.24;105609;1251;96510;-67
2023/12/08 00:56:28;;;;;;;72.80;35.10;;;;;;;-2.12;80.93;99547.98;105851;1251;107059;-68
2023/12/08 00:58:56;;;;;;;69.30;34.50;;;;;;;-2.10;80.91;99546.40;105980;1255;97415;-67
2023/12/08 01:01:24;;;;;;;66.70;33.90;;;;;;;-2.12;80.93;99553.71;105961;1254;96597;-69
2023/12/08 01:03:52;;;;;;;69.30;35.50;;;;;;;-2.13;81.01;99550.08;105896;1251;109872;-67
2023/12/08 01:06:20;;;;;;;67.20;34.90;;;;;;;-2.13;80.92;99545.91;105681;1251;96591;-69
2023/12/08 01:08:48;;;;;;;69.30;33.90;;;;;;;-2.12;81.03;99539.46;105580;1264;107601;-68
2023/12/08 01:11:17;;;;;;;73.30;32.60;;;;;;;-2.13;80.87;99534.08;105839;1265;97807;-67
2023/12/08 01:13:45;;;;;;;72.60;35.40;;;;;;;-2.15;80.89;99530.46;105744;1250;96600;-68
2023/12/08 01:16:12;;;;;;;65.00;31.70;;;;;;;-2.17;80.76;99524.25;105514;1251;108974;-68
2023/12/08 01:18:40;;;;;;;67.60;35.30;;;;;;;-2.18;80.83;99525.81;105459;1254;96714;-67
2023/12/08 01:21:08;;;;;;;69.10;33.70;;;;;;;-2.17;80.94;99523.02;105728;1263;106808;-68
2023/12/08 01:23:36;;;;;;;67.50;33.00;;;;;;;-2.16;80.87;99517.80;105724;1258;96631;-67
2023/12/08 01:26:06;;;;;;;65.20;33.00;;;;;;;-2.18;80.87;99510.35;105859;1255;96542;-67
2023/12/08 01:28:34;;;;;;;65.70;32.80;;;;;;;-2.19;80.91;99508.61;105595;1253;110226;-67
2023/12/08 01:31:03;;;;;;;70.60;34.70;;;;;;;-2.18;80.77;99505.48;105771;1251;96651;-68
2023/12/08 01:33:31;;;;;;;73.90;35.70;;;;;;;-2.21;80.79;99504.32;105602;1267;107587;-68
2023/12/08 01:35:59;;;;;;;69.60;37.20;;;;;;;-2.24;80.78;99499.84;105762;1254;96676;-68
2023/12/08 01:38:47;;;;;;;70.40;34.10;;;;;;;-2.25;80.81;99501.23;105750;1251;97260;-68
2023/12/08 01:41:16;;;;;;;69.30;33.10;;;;;;;-2.26;80.81;99498.83;105774;1253;109541;-68
2023/12/08 01:43:44;;;;;;;69.80;32.80;;;;;;;-2.25;80.90;99493.61;105448;1263;96584;-68
2023/12/08 01:46:15;;;;;;;69.90;33.50;;;;;;;-2.26;80.85;99489.44;105654;1254;106593;-67
2023/12/08 01:48:44;;;;;;;68.80;34.30;;;;;;;-2.25;80.98;99491.35;105847;1254;97829;-68
2023/12/08 01:51:15;;;;;;;78.30;38.60;;;;;;;-2.27;80.79;99482.15;105895;1254;97811;-68
2023/12/08 01:53:44;;;;;;;72.50;35.50;;;;;;;-2.31;80.72;99477.86;105648;1251;110872;-68
2023/12/08 01:56:13;;;;;;;77.80;36.10;;;;;;;-2.34;80.75;99480.88;105552;1254;96584;-69
2023/12/08 01:58:44;;;;;;;72.90;33.80;;;;;;;-2.37;80.64;99479.68;105687;1254;107364;-68
2023/12/08 02:01:12;;;;;;;75.80;35.90;;;;;;;-2.40;80.69;99483.02;105673;1252;97991;-69
2023/12/08 02:03:40;;;;;;;66.90;30.80;;;;;;;-2.42;80.67;99484.09;105548;1254;96670;-68
2023/12/08 02:06:09;;;;;;;68.50;31.50;;;;;;;-2.43;80.67;99479.39;105755;1251;109856;-69
2023/12/08 02:08:38;;;;;;;70.40;33.70;;;;;;;-2.45;80.82;99478.40;105841;1253;96604;-67
2023/12/08 02:11:06;;;;;;;73.30;36.00;;;;;;;-2.45;80.66;99477.36;105780;1263;107187;-67
2023/12/08 02:13:34;;;;;;;80.20;38.20;;;;;;;-2.45;80.80;99480.65;105832;1254;96619;-66
2023/12/08 02:16:10;;;;;;;67.50;31.00;;;;;;;-2.44;80.88;99484.64;105910;1253;96757;-67
2023/12/08 02:18:39;;;;;;;72.20;33.30;;;;;;;-2.45;80.79;99479.96;105521;1257;109846;-68
2023/12/08 02:21:10;;;;;;;73.10;34.80;;;;;;;-2.44;80.93;99479.77;105943;1251;97905;-67
2023/12/08 02:23:42;;;;;;;77.20;36.00;;;;;;;-2.45;80.92;99483.08;105502;1257;107115;-68
2023/12/08 02:26:11;;;;;;;81.00;36.40;;;;;;;-2.45;80.76;99480.31;105696;1254;96597;-67
2023/12/08 02:28:39;;;;;;;75.90;35.80;;;;;;;-2.48;80.84;99477.77;105614;1254;96602;-68
2023/12/08 02:31:11;;;;;;;71.60;34.60;;;;;;;-2.49;80.76;99475.49;105892;1251;109410;-68
2023/12/08 02:33:43;;;;;;;70.00;33.90;;;;;;;-2.48;80.93;99478.08;105898;1253;96671;-69
2023/12/08 02:36:16;;;;;;;76.00;35.50;;;;;;;-2.48;80.88;99474.80;105675;1254;108212;-67
2023/12/08 02:38:47;;;;;;;76.30;35.70;;;;;;;-2.47;80.86;99476.16;105536;1253;96638;-67
2023/12/08 02:41:14;;;;;;;70.20;33.30;;;;;;;-2.45;80.89;99471.80;105830;1250;96567;-68
2023/12/08 02:43:42;;;;;;;79.50;36.40;;;;;;;-2.42;80.89;99470.71;105573;1254;110190;-68
2023/12/08 02:46:10;;;;;;;78.80;37.00;;;;;;;-2.43;80.83;99476.29;105916;1251;96603;-68
2023/12/08 02:48:38;;;;;;;77.60;35.90;;;;;;;-2.42;80.98;99479.91;105626;1254;107563;-68
2023/12/08 02:51:06;;;;;;;73.70;34.00;;;;;;;-2.41;80.81;99476.60;105914;1262;96577;-68
2023/12/08 02:53:34;;;;;;;80.30;36.40;;;;;;;-2.41;80.80;99472.77;105923;1254;97048;-68
2023/12/08 02:56:02;;;;;;;75.30;35.70;;;;;;;-2.42;80.80;99467.92;105946;1251;109880;-68
2023/12/08 02:58:30;;;;;;;70.60;32.10;;;;;;;-2.43;80.90;99475.58;105834;1253;96497;-68
2023/12/08 03:00:58;;;;;;;76.20;35.30;;;;;;;-2.44;80.80;99472.64;106117;1250;107708;-69
2023/12/08 03:03:26;;;;;;;70.40;32.10;;;;;;;-2.45;80.84;99475.09;105955;1254;96611;-69
2023/12/08 03:05:54;;;;;;;75.20;35.30;;;;;;;-2.45;80.84;99483.42;105608;1250;96573;-66
2023/12/08 03:08:22;;;;;;;76.60;35.20;;;;;;;-2.45;80.82;99495.09;105491;1254;108627;-68
2023/12/08 03:10:49;;;;;;;68.10;31.80;;;;;;;-2.46;80.84;99505.16;106722;1254;96685;-67
2023/12/08 03:13:17;;;;;;;75.60;35.80;;;;;;;-2.44;80.96;99506.52;105866;1252;107267;-67
2023/12/08 03:15:45;;;;;;;67.90;32.90;;;;;;;-2.45;80.75;99503.93;105704;1251;96657;-68
2023/12/08 03:18:13;;;;;;;86.50;34.50;;;;;;;-2.43;80.94;99501.65;106041;1253;96535;-68
2023/12/08 03:20:41;;;;;;;71.30;33.60;;;;;;;-2.41;81.06;99496.05;105627;1251;109898;-69
2023/12/08 03:23:09;;;;;;;76.00;36.40;;;;;;;-2.39;80.72;99492.56;105828;1249;96510;-68
2023/12/08 03:25:37;;;;;;;72.80;32.10;;;;;;;-2.39;80.90;99492.21;105888;1251;108870;-69
2023/12/08 03:28:04;;;;;;;74.80;35.20;;;;;;;-2.41;80.79;99496.91;105868;1254;96590;-67
2023/12/08 03:30:32;;;;;;;67.30;35.10;;;;;;;-2.41;80.75;99499.19;105709;1251;96628;-67
2023/12/08 03:33:00;;;;;;;62.00;29.40;;;;;;;-2.42;80.84;99504.05;105872;1253;109901;-66
2023/12/08 03:35:28;;;;;;;60.40;30.00;;;;;;;-2.41;80.91;99504.39;105483;1251;96595;-68
2023/12/08 03:37:55;;;;;;;67.70;33.40;;;;;;;-2.40;80.94;99511.49;105710;1251;107611;-68
2023/12/08 03:40:23;;;;;;;66.40;32.80;;;;;;;-2.37;80.93;99518.77;105585;1252;96580;-68
2023/12/08 03:42:51;;;;;;;59.70;28.90;;;;;;;-2.36;80.80;99523.26;105799;1251;97559;-68
2023/12/08 03:45:19;;;;;;;65.50;30.00;;;;;;;-2.36;80.71;99526.55;105611;1251;109920;-67
2023/12/08 03:47:47;;;;;;;59.90;31.00;;;;;;;-2.36;80.88;99530.40;105773;1251;97459;-67
2023/12/08 03:50:15;;;;;;;61.70;29.10;;;;;;;-2.36;80.83;99527.09;105575;1251;107592;-67
2023/12/08 03:52:43;;;;;;;61.70;29.00;;;;;;;-2.35;80.85;99518.74;105249;1254;97886;-68
2023/12/08 03:55:11;;;;;;;63.90;29.70;;;;;;;-2.37;80.75;99519.11;105742;1253;96602;-66
2023/12/08 03:57:38;;;;;;;68.70;33.10;;;;;;;-2.37;80.82;99521.89;105056;1254;108452;-66
2023/12/08 04:00:07;;;;;;;60.50;29.30;;;;;;;-2.40;80.79;99528.17;105208;1265;96649;-68
2023/12/08 04:02:35;;;;;;;58.90;28.50;;;;;;;-2.41;80.82;99525.23;105810;1254;107186;-68
2023/12/08 04:05:04;;;;;;;66.60;31.50;;;;;;;-2.44;80.79;99522.50;105907;1264;96557;-68
2023/12/08 04:07:32;;;;;;;62.50;31.60;;;;;;;-2.45;80.72;99516.95;105867;1254;97952;-69
2023/12/08 04:09:59;;;;;;;63.40;30.10;;;;;;;-2.47;80.78;99521.66;105650;1254;109842;-69
2023/12/08 04:12:27;;;;;;;62.00;30.70;;;;;;;-2.47;80.72;99516.30;105786;1251;96597;-68
2023/12/08 04:14:55;;;;;;;61.80;29.00;;;;;;;-2.49;80.69;99514.06;105887;1253;107732;-68
2023/12/08 04:17:23;;;;;;;66.20;30.90;;;;;;;-2.51;80.70;99510.60;105496;1257;96607;-68
2023/12/08 04:19:52;;;;;;;61.90;30.60;;;;;;;-2.53;80.71;99513.92;105734;1254;97970;-68
2023/12/08 04:22:19;;;;;;;59.10;27.70;;;;;;;-2.54;80.74;99514.63;105552;1251;110034;-68
2023/12/08 04:24:47;;;;;;;63.50;31.10;;;;;;;-2.55;80.72;99517.60;105705;1263;96666;-67
2023/12/08 04:27:15;;;;;;;59.20;28.60;;;;;;;-2.56;80.74;99516.20;105740;1254;107551;-68
2023/12/08 04:29:43;;;;;;;50.90;24.80;;;;;;;-2.54;80.82;99514.98;105791;1251;97607;-66
2023/12/08 04:32:11;;;;;;;52.60;25.10;;;;;;;-2.53;80.84;99509.24;105627;1253;96513;-68
2023/12/08 04:34:39;;;;;;;49.90;23.60;;;;;;;-2.50;80.98;99507.30;105567;1254;108493;-66
2023/12/08 04:37:07;;;;;;;51.40;22.50;;;;;;;-2.46;80.92;99512.64;105601;1254;96701;-67
2023/12/08 04:39:35;;;;;;;49.40;24.50;;;;;;;-2.42;80.95;99522.81;105667;1252;107767;-66
2023/12/08 04:42:03;;;;;;;48.80;23.90;;;;;;;-2.39;80.96;99525.39;105746;1254;96618;-67
2023/12/08 04:44:31;;;;;;;60.80;27.50;;;;;;;-2.40;80.87;99529.39;105816;1254;98052;-68
2023/12/08 04:47:00;;;;;;;68.60;32.80;;;;;;;-2.45;80.59;99526.16;105462;1254;109491;-68
2023/12/08 04:49:28;;;;;;;64.20;29.90;;;;;;;-2.50;80.66;99529.20;105880;1254;96593;-70
2023/12/08 04:51:56;;;;;;;71.90;32.80;;;;;;;-2.54;80.66;99536.51;105807;1254;107380;-67
2023/12/08 04:54:24;;;;;;;65.70;33.80;;;;;;;-2.55;80.65;99539.48;105556;1251;96545;-67
2023/12/08 04:56:51;;;;;;;64.10;31.60;;;;;;;-2.56;80.78;99537.21;105797;1251;96597;-67
2023/12/08 04:59:19;;;;;;;66.90;32.10;;;;;;;-2.57;80.78;99533.41;105156;1254;109417;-66
2023/12/08 05:01:51;;;;;;;69.90;34.60;;;;;;;-2.54;80.90;99534.25;105300;1263;96611;-67
2023/12/08 05:04:20;;;;;;;66.40;33.30;;;;;;;-2.51;80.97;99533.55;105234;1254;107465;-67
2023/12/08 05:06:48;;;;;;;66.40;31.10;;;;;;;-2.50;80.86;99539.59;105683;1262;96684;-67
2023/12/08 05:09:16;;;;;;;68.30;34.70;;;;;;;-2.49;80.91;99541.84;105685;1253;97316;-68
2023/12/08 05:11:44;;;;;;;72.20;36.00;;;;;;;-2.50;80.68;99543.58;105809;1253;109832;-67
2023/12/08 05:14:13;;;;;;;73.40;37.60;;;;;;;-2.50;80.67;99546.53;105819;1253;96531;-68
2023/12/08 05:16:41;;;;;;;66.50;34.60;;;;;;;-2.49;80.77;99550.87;105731;1251;107183;-69
2023/12/08 05:19:09;;;;;;;67.00;34.60;;;;;;;-2.47;80.73;99552.95;105717;1257;96617;-66
2023/12/08 05:21:37;;;;;;;65.90;33.30;;;;;;;-2.46;80.86;99555.88;105841;1251;96580;-68
2023/12/08 05:24:05;;;;;;;66.70;31.90;;;;;;;-2.46;80.66;99554.83;105873;1269;109894;-68
2023/12/08 05:26:34;;;;;;;67.80;33.90;;;;;;;-2.47;80.76;99554.67;105877;1267;96590;-67
2023/12/08 05:29:02;;;;;;;61.70;30.00;;;;;;;-2.49;80.70;99550.88;105802;1273;107594;-67
2023/12/08 05:31:29;;;;;;;65.70;31.30;;;;;;;-2.50;80.70;99550.89;105584;1254;96695;-67
2023/12/08 05:33:57;;;;;;;60.30;30.10;;;;;;;-2.50;80.72;99549.50;105601;1251;96633;-68
2023/12/08 05:36:26;;;;;;;64.90;32.00;;;;;;;-2.50;80.72;99554.19;105935;1251;109973;-66
2023/12/08 05:38:54;;;;;;;63.50;32.10;;;;;;;-2.50;80.87;99560.26;105633;1251;96682;-68
2023/12/08 05:41:22;;;;;;;64.60;32.30;;;;;;;-2.48;80.88;99564.40;105804;1251;107533;-68
2023/12/08 05:43:50;;;;;;;65.90;32.10;;;;;;;-2.46;80.84;99569.77;105851;1251;97527;-68
2023/12/08 05:46:17;;;;;;;67.90;32.80;;;;;;;-2.46;80.78;99570.13;105676;1251;96702;-68
2023/12/08 05:48:47;;;;;;;66.60;32.90;;;;;;;-2.46;80.78;99566.48;105497;1251;109933;-67
2023/12/08 05:51:16;;;;;;;67.10;32.60;;;;;;;-2.46;80.89;99569.95;105747;1252;96952;-66
2023/12/08 05:53:44;;;;;;;67.50;31.60;;;;;;;-2.44;80.79;99574.94;105826;1254;107650;-68
2023/12/08 05:56:12;;;;;;;69.80;34.50;;;;;;;-2.43;80.87;99578.41;105663;1254;96707;-67
2023/12/08 05:58:40;;;;;;;68.30;34.40;;;;;;;-2.43;80.74;99577.20;105506;1253;96526;-68
2023/12/08 06:01:12;;;;;;;68.50;33.90;;;;;;;-2.46;80.76;99566.12;105742;1256;109440;-68
2023/12/08 06:03:39;;;;;;;63.90;32.70;;;;;;;-2.49;80.77;99559.73;105558;1254;96593;-65
2023/12/08 06:06:07;;;;;;;65.80;34.20;;;;;;;-2.51;80.72;99558.88;104707;1265;107865;-66
2023/12/08 06:08:36;;;;;;;69.10;33.60;;;;;;;-2.53;80.73;99550.56;105276;1266;96603;-70
2023/12/08 06:11:04;;;;;;;66.10;33.20;;;;;;;-2.53;80.71;99546.58;105935;1253;96589;-69
2023/12/08 06:13:32;;;;;;;70.80;32.70;;;;;;;-2.51;80.80;99548.81;106002;1253;109321;-73
2023/12/08 06:16:01;;;;;;;73.30;34.90;;;;;;;-2.50;80.69;99552.27;105986;1251;96568;-71
2023/12/08 06:18:28;;;;;;;69.90;35.20;;;;;;;-2.49;80.83;99552.09;105836;1253;107118;-71
2023/12/08 06:20:58;;;;;;;69.10;34.80;;;;;;;-2.48;80.76;99552.59;105774;1254;97929;-74
2023/12/08 06:23:26;;;;;;;70.20;33.80;;;;;;;-2.48;80.81;99551.04;106069;1254;96601;-71
2023/12/08 06:25:54;;;;;;;70.90;33.20;;;;;;;-2.47;80.67;99552.07;107079;1251;109989;-72
2023/12/08 06:28:22;;;;;;;63.50;32.90;;;;;;;-2.47;80.72;99557.62;105968;1250;97393;-73
2023/12/08 06:30:49;;;;;;;62.20;32.60;;;;;;;-2.45;80.84;99551.85;105351;1272;108383;-73
2023/12/08 06:33:17;;;;;;;68.90;36.40;;;;;;;-2.45;80.74;99543.52;105851;1251;96584;-73
2023/12/08 06:35:46;;;;;;;73.00;35.40;;;;;;;-2.49;80.67;99531.95;105866;1254;96584;-74
2023/12/08 06:38:15;;;;;;;61.10;31.90;;;;;;;-2.51;80.64;99530.91;105977;1257;110247;-74
2023/12/08 06:40:43;;;;;;;70.50;34.60;;;;;;;-2.53;80.61;99527.82;105904;1254;96692;-75
2023/12/08 06:43:11;;;;;;;70.50;34.40;;;;;;;-2.56;80.62;99529.06;105896;1254;107666;-73
2023/12/08 06:45:38;;;;;;;74.00;36.10;;;;;;;-2.59;80.58;99534.31;105612;1257;96678;-76
2023/12/08 06:48:07;;;;;;;71.60;34.30;;;;;;;-2.60;80.60;99544.22;105687;1254;96600;-74
2023/12/08 06:50:37;;;;;;;70.20;36.00;;;;;;;-2.60;80.70;99549.77;105842;1254;110219;-77
2023/12/08 06:53:05;;;;;;;63.60;30.10;;;;;;;-2.61;80.55;99547.01;105843;1254;96603;-73
2023/12/08 06:55:33;;;;;;;64.80;33.30;;;;;;;-2.61;80.62;99543.70;105847;1254;107261;-73
2023/12/08 06:58:01;;;;;;;68.70;34.50;;;;;;;-2.60;80.61;99545.61;105555;1251;96615;-75
2023/12/08 07:00:29;;;;;;;64.90;33.30;;;;;;;-2.60;80.52;99545.96;105700;1251;96590;-73
2023/12/08 07:02:57;;;;;;;68.00;32.50;;;;;;;-2.61;80.66;99535.54;105820;1250;109897;-73
2023/12/08 07:05:25;;;;;;;66.00;32.00;;;;;;;-2.62;80.63;99529.13;105552;1251;96599;-70
2023/12/08 07:07:55;;;;;;;68.20;34.60;;;;;;;-2.60;80.67;99525.29;105817;1255;108253;-73
2023/12/08 07:10:23;;;;;;;62.10;32.10;;;;;;;-2.57;80.75;99522.99;105579;1254;96651;-70
2023/12/08 07:12:51;;;;;;;73.90;37.00;;;;;;;-2.56;80.60;99522.11;105813;1253;96567;-71
2023/12/08 07:15:20;;;;;;;68.30;33.90;;;;;;;-2.56;80.70;99520.20;105724;1258;108959;-68
2023/12/08 07:17:48;;;;;;;68.60;33.10;;;;;;;-2.55;80.60;99521.06;106672;1253;96610;-74
2023/12/08 07:20:18;;;;;;;73.40;36.90;;;;;;;-2.55;80.68;99521.23;106318;1254;107643;-72
2023/12/08 07:22:46;;;;;;;74.90;36.20;;;;;;;-2.52;80.65;99530.42;105781;1257;96625;-70
2023/12/08 07:25:15;;;;;;;75.10;38.00;;;;;;;-2.51;80.64;99534.92;105767;1250;96593;-74
2023/12/08 07:27:42;;;;;;;78.30;35.70;;;;;;;-2.50;80.68;99534.05;107600;1254;109844;-71
2023/12/08 07:30:10;;;;;;;72.50;36.40;;;;;;;-2.49;80.67;99536.45;105767;1254;96602;-73
2023/12/08 07:32:39;;;;;;;70.00;35.30;;;;;;;-2.48;80.50;99538.35;105825;1254;107746;-75
2023/12/08 07:35:07;;;;;;;77.60;37.50;;;;;;;-2.44;80.81;99534.48;105690;1254;96629;-74
2023/12/08 07:37:40;;;;;;;75.90;36.20;;;;;;;-2.43;80.59;99534.63;106034;1254;96612;-76
2023/12/08 07:40:09;;;;;;;74.70;36.30;;;;;;;-2.43;80.60;99530.13;105626;1257;109880;-74
2023/12/08 07:42:37;;;;;;;75.70;36.50;;;;;;;-2.40;80.65;99529.05;105914;1251;96579;-76
2023/12/08 07:45:06;;;;;;;72.50;35.30;;;;;;;-2.37;80.76;99524.15;105716;1254;107615;-74
2023/12/08 07:47:34;;;;;;;80.60;39.70;;;;;;;-2.34;80.64;99519.95;105965;1253;96597;-69
2023/12/08 07:50:02;;;;;;;80.70;39.80;;;;;;;-2.36;80.57;99526.56;105840;1254;96606;-73
2023/12/08 07:52:34;;;;;;;77.60;36.90;;;;;;;-2.36;80.62;99527.45;105538;1257;109818;-74
2023/12/08 07:55:03;;;;;;;72.50;35.40;;;;;;;-2.37;80.41;99527.10;105833;1254;97766;-73
2023/12/08 07:57:30;;;;;;;72.70;36.00;;;;;;;-2.39;80.49;99527.98;105801;1267;106113;-72
2023/12/08 07:59:58;;;;;;;65.50;32.50;;;;;;;-2.40;80.46;99526.62;105613;1254;96612;-71
2023/12/08 08:02:26;;;;;;;72.20;31.90;;;;;;;-2.40;80.46;99523.83;105908;1254;96966;-72
2023/12/08 08:04:54;;;;;;;68.90;33.10;;;;;;;-2.40;80.52;99517.39;105922;1251;109976;-70
2023/12/08 08:07:22;;;;;;;68.60;33.20;;;;;;;-2.38;80.51;99515.48;105810;1252;97614;-71
2023/12/08 08:09:53;;;;;;;64.70;33.60;;;;;;;-2.39;80.62;99512.53;105814;1252;105951;-70
2023/12/08 08:12:21;;;;;;;70.90;33.30;;;;;;;-2.39;80.61;99514.09;105822;1254;96562;-71
2023/12/08 08:14:48;;;;;;;70.80;32.60;;;;;;;-2.41;80.45;99516.55;105635;1254;96539;-71
2023/12/08 08:17:17;;;;;;;71.20;31.60;;;;;;;-2.41;80.39;99516.20;105771;1254;110328;-71
2023/12/08 08:19:45;;;;;;;71.40;32.30;;;;;;;-2.38;80.60;99517.20;105862;1254;97955;-71
2023/12/08 08:22:13;;;;;;;68.60;33.70;;;;;;;-2.35;80.67;99513.53;105787;1254;107208;-71
2023/12/08 08:25:00;;;;;;;71.50;34.10;;;;;;;-2.35;80.37;99513.02;105575;1254;96599;-71
2023/12/08 08:27:28;;;;;;;71.90;33.90;;;;;;;-2.36;80.44;99510.06;105629;1251;97954;-71
2023/12/08 08:29:57;;;;;;;70.80;32.40;;;;;;;-2.38;80.33;99508.69;105755;1254;109898;-70
2023/12/08 08:32:24;;;;;;;72.70;33.20;;;;;;;-2.39;80.58;99511.32;105497;1253;96669;-68
2023/12/08 08:34:52;;;;;;;74.10;36.00;;;;;;;-2.37;80.68;99509.73;105817;1255;107381;-69
2023/12/08 08:37:26;;;;;;;71.30;35.10;;;;;;;-2.34;80.59;99506.91;105554;1254;96696;-70
2023/12/08 08:39:54;;;;;;;68.80;33.40;;;;;;;-2.32;80.56;99510.36;105755;1254;96695;-70
2023/12/08 08:42:23;;;;;;;77.10;35.70;;;;;;;-2.31;80.51;99513.82;105604;1254;110009;-70
2023/12/08 08:44:50;;;;;;;75.50;35.90;;;;;;;-2.33;80.36;99505.16;105786;1254;97939;-68
2023/12/08 08:47:19;;;;;;;71.40;35.30;;;;;;;-2.32;80.61;99497.86;105582;1254;107621;-71
2023/12/08 08:49:47;;;;;;;68.90;33.20;;;;;;;-2.28;80.48;99491.91;105652;1257;97843;-72
2023/12/08 08:52:15;;;;;;;66.80;32.70;;;;;;;-2.23;80.72;99494.27;105773;1250;96621;-71
2023/12/08 08:54:43;;;;;;;69.40;33.00;;;;;;;-2.20;80.62;99489.17;105662;1257;110571;-70
2023/12/08 08:57:11;;;;;;;72.70;33.40;;;;;;;-2.19;80.56;99486.75;105586;1251;96603;-73
2023/12/08 08:59:57;;;;;;;67.40;32.10;;;;;;;-2.18;80.52;99488.45;105575;1256;108953;-71
2023/12/08 09:02:25;;;;;;;76.20;34.60;;;;;;;-2.18;80.46;99488.64;105925;1254;96616;-73
2023/12/08 09:04:54;;;;;;;72.00;34.20;;;;;;;-2.18;80.45;99491.23;105826;1254;96609;-73
2023/12/08 09:07:22;;;;;;;75.00;36.20;;;;;;;-2.15;80.60;99492.25;105669;1254;109090;-74
2023/12/08 09:09:51;;;;;;;67.30;29.50;;;;;;;-2.11;80.63;99492.54;105793;1256;96628;-73
2023/12/08 09:12:19;;;;;;;66.90;31.50;;;;;;;-2.05;80.71;99490.38;105798;1258;107084;-74
2023/12/08 09:17:34;;;;;;;74.80;32.70;;;;;;;-2.02;80.71;99489.27;105758;1252;96539;-71
2023/12/08 09:20:07;;;;;;;73.50;33.30;;;;;;;-1.98;80.66;99487.30;105776;1253;109916;-72
2023/12/08 09:22:35;;;;;;;72.30;33.80;;;;;;;-1.94;80.70;99481.33;105683;1252;96587;-72
2023/12/08 09:25:03;;;;;;;70.80;33.50;;;;;;;-1.89;80.73;99471.18;105818;1251;106694;-72
2023/12/08 09:27:31;;;;;;;70.50;33.80;;;;;;;-1.83;80.82;99462.56;105953;1253;96606;-74
2023/12/08 09:29:59;;;;;;;69.90;34.50;;;;;;;-1.79;80.68;99460.42;105630;1253;97307;-69
2023/12/08 09:32:28;;;;;;;71.70;34.70;;;;;;;-1.74;80.72;99456.52;105892;1254;109840;-68
2023/12/08 09:34:56;;;;;;;71.70;35.10;;;;;;;-1.71;80.65;99457.86;105800;1254;97428;-70
2023/12/08 09:37:24;;;;;;;70.00;33.60;;;;;;;-1.66;80.83;99462.31;105897;1254;107596;-69
2023/12/08 09:40:08;;;;;;;72.20;34.30;;;;;;;-1.60;80.86;99463.94;105634;1250;206005;-69
2023/12/08 09:42:45;;;;;;;68.30;34.60;;;;;;;-1.59;80.76;99461.14;105299;1256;96594;-69
2023/12/08 09:45:13;;;;;;;68.90;31.30;;;;;;;-1.57;80.59;99457.09;105160;1259;109928;-69
2023/12/08 09:47:43;;;;;;;67.10;32.00;;;;;;;-1.53;80.69;99456.52;105157;1260;96520;-69
2023/12/08 09:50:12;;;;;;;73.50;34.60;;;;;;;-1.53;80.71;99457.73;104912;1271;107757;-69
2023/12/08 09:52:41;;;;;;;73.90;34.20;;;;;;;-1.54;80.60;99456.71;105150;1259;97102;-70
2023/12/08 09:55:10;;;;;;;71.20;35.70;;;;;;;-1.56;80.64;99455.17;105128;1257;96581;-68
2023/12/08 09:57:41;;;;;;;67.60;32.70;;;;;;;-1.56;80.63;99457.62;105417;1259;109933;-69
2023/12/08 10:00:13;;;;;;;67.40;33.20;;;;;;;-1.57;80.72;99454.84;105174;1257;96742;-70
2023/12/08 10:02:41;;;;;;;66.60;32.20;;;;;;;-1.56;80.60;99453.27;105620;1259;108208;-70
2023/12/08 10:05:10;;;;;;;66.50;33.80;;;;;;;-1.57;80.68;99451.71;105392;1259;96686;-69
2023/12/08 10:07:43;;;;;;;67.70;34.50;;;;;;;-1.53;80.84;99449.05;105170;1263;96629;-69
2023/12/08 10:10:11;;;;;;;68.40;34.40;;;;;;;-1.51;80.66;99448.84;105384;1257;109972;-68
2023/12/08 10:12:40;;;;;;;64.90;32.80;;;;;;;-1.50;80.63;99453.00;105434;1259;96501;-69
2023/12/08 10:15:10;;;;;;;65.70;32.20;;;;;;;-1.48;80.65;99461.14;105357;1262;107509;-70
2023/12/08 10:17:49;;;;;;;63.30;31.90;;;;;;;-1.47;80.42;99464.77;105426;1256;96692;-68
2023/12/08 10:20:20;;;;;;;65.30;29.80;;;;;;;-1.47;80.56;99463.92;105544;1259;96955;-69
2023/12/08 10:22:51;;;;;;;69.50;31.80;;;;;;;-1.49;80.61;99462.90;105465;1265;110346;-70
2023/12/08 10:25:24;;;;;;;67.00;34.00;;;;;;;-1.51;80.48;99457.89;105385;1259;96529;-70
2023/12/08 10:27:56;;;;;;;71.10;32.00;;;;;;;-1.51;80.51;99460.13;105307;1274;108272;-70
2023/12/08 10:30:27;;;;;;;71.50;34.00;;;;;;;-1.53;80.51;99455.13;105057;1257;96605;-69
2023/12/08 10:32:57;;;;;;;77.20;38.20;;;;;;;-1.54;80.39;99454.11;105221;1255;96606;-70
2023/12/08 10:35:25;;;;;;;74.50;35.30;;;;;;;-1.55;80.69;99451.69;105400;1261;109978;-71
2023/12/08 10:37:53;;;;;;;73.10;34.90;;;;;;;-1.56;80.24;99446.84;105469;1257;96690;-71
2023/12/08 10:40:21;;;;;;;75.80;37.20;;;;;;;-1.61;80.09;99444.64;105121;1272;107581;-69
2023/12/08 10:42:49;;;;;;;81.40;41.00;;;;;;;-1.60;80.42;99446.38;105074;1259;96605;-70
2023/12/08 10:45:17;;;;;;;77.40;35.50;;;;;;;-1.59;80.30;99445.83;105512;1259;96641;-71
2023/12/08 10:47:49;;;;;;;75.90;37.00;;;;;;;-1.58;80.39;99444.95;105585;1257;110084;-69
2023/12/08 10:50:19;;;;;;;71.10;33.40;;;;;;;-1.56;80.60;99443.00;105558;1259;96740;-70
2023/12/08 10:52:49;;;;;;;71.60;34.10;;;;;;;-1.54;80.60;99441.92;105446;1259;106717;-71
2023/12/08 10:55:17;;;;;;;71.90;33.20;;;;;;;-1.54;80.57;99442.45;105357;1259;96596;-71
2023/12/08 10:57:48;;;;;;;72.70;33.80;;;;;;;-1.52;80.35;99440.67;105386;1259;96562;-69
2023/12/08 11:03:35;;;;;;;74.60;35.20;;;;;;;-1.55;80.59;99444.20;102951;1284;636885;-68
2023/12/08 11:06:08;;;;;;;64.90;31.60;;;;;;;-1.54;80.59;99448.18;104761;1267;94313;-69
2023/12/08 11:08:40;;;;;;;63.40;31.40;;;;;;;-1.53;80.51;99452.16;104750;1266;94431;-71
2023/12/08 11:11:11;;;;;;;79.70;36.30;;;;;;;-1.55;80.54;99458.81;104723;1270;107177;-70
2023/12/08 11:13:45;;;;;;;80.40;36.10;;;;;;;-1.59;80.28;99459.58;104718;1268;97041;-71
2023/12/08 11:16:18;;;;;;;80.90;38.40;;;;;;;-1.62;80.25;99455.27;104994;1263;198737;-71
2023/12/08 11:18:46;;;;;;;78.40;36.10;;;;;;;-1.62;80.52;99443.45;104698;1264;94360;-69
2023/12/08 11:21:14;;;;;;;74.50;36.10;;;;;;;-1.61;80.50;99433.52;104916;1264;94360;-69